createdAt,value
2023-01-22T00:01:40.828Z,2.10
2023-01-22T00:04:10.266Z,2.20
2023-01-22T00:06:37.867Z,1.90
2023-01-22T00:09:05.475Z,2.10
2023-01-22T00:11:33.194Z,2.10
2023-01-22T00:14:00.784Z,2.00
2023-01-22T00:16:28.558Z,2.00
2023-01-22T00:18:56.397Z,2.00
2023-01-22T00:21:26.102Z,2.00
2023-01-22T00:23:53.702Z,2.00
2023-01-22T00:26:21.781Z,2.00
2023-01-22T00:28:49.718Z,2.00
2023-01-22T00:31:18.030Z,2.20
2023-01-22T00:33:45.985Z,2.00
2023-01-22T00:36:15.372Z,2.10
2023-01-22T00:38:44.582Z,2.10
2023-01-22T00:41:13.172Z,2.00
2023-01-22T00:43:41.077Z,1.90
2023-01-22T00:46:10.884Z,2.20
2023-01-22T00:48:38.648Z,1.90
2023-01-22T00:51:08.542Z,2.10
2023-01-22T00:53:36.302Z,2.10
2023-01-22T00:56:05.584Z,2.20
2023-01-22T00:58:33.117Z,2.20
2023-01-22T01:01:02.071Z,2.30
2023-01-22T01:03:31.492Z,2.10
2023-01-22T01:05:59.774Z,2.00
2023-01-22T01:08:28.110Z,2.00
2023-01-22T01:10:56.141Z,2.00
2023-01-22T01:13:25.464Z,2.00
2023-01-22T01:15:59.151Z,2.00
2023-01-22T01:18:26.753Z,2.00
2023-01-22T01:20:54.814Z,1.90
2023-01-22T01:23:22.543Z,2.00
2023-01-22T01:25:50.111Z,2.00
2023-01-22T01:28:17.726Z,2.30
2023-01-22T01:30:46.979Z,2.10
2023-01-22T01:33:14.561Z,2.20
2023-01-22T01:35:42.141Z,2.00
2023-01-22T01:38:09.739Z,2.10
2023-01-22T01:40:42.435Z,2.00
2023-01-22T01:43:14.760Z,2.10
2023-01-22T01:45:42.417Z,2.00
2023-01-22T01:48:24.935Z,2.20
2023-01-22T01:50:54.792Z,2.00
2023-01-22T01:53:22.389Z,2.10
2023-01-22T01:55:50.526Z,2.00
2023-01-22T01:58:21.580Z,2.10
2023-01-22T02:00:51.357Z,2.00
2023-01-22T02:03:20.958Z,2.00
2023-01-22T02:05:48.713Z,2.00
2023-01-22T02:08:16.383Z,2.30
2023-01-22T02:10:44.214Z,1.90
2023-01-22T02:13:15.675Z,2.00
2023-01-22T02:15:43.428Z,2.40
2023-01-22T02:18:12.309Z,2.20
2023-01-22T02:20:41.492Z,2.10
2023-01-22T02:23:09.115Z,2.10
2023-01-22T02:25:36.739Z,2.20
2023-01-22T02:28:04.342Z,2.10
2023-01-22T02:30:31.985Z,2.10
2023-01-22T02:32:59.628Z,2.10
2023-01-22T02:35:27.309Z,2.10
2023-01-22T02:37:56.209Z,2.10
2023-01-22T02:40:23.761Z,2.10
2023-01-22T02:42:51.412Z,2.20
2023-01-22T02:45:19.068Z,2.20
2023-01-22T02:47:46.653Z,2.10
2023-01-22T02:50:14.223Z,2.10
2023-01-22T02:52:41.838Z,2.10
2023-01-22T02:55:10.952Z,2.00
2023-01-22T02:57:38.506Z,2.00
2023-01-22T03:00:06.471Z,2.10
2023-01-22T03:02:34.088Z,2.30
2023-01-22T03:05:04.095Z,2.10
2023-01-22T03:07:42.313Z,2.20
2023-01-22T03:10:13.383Z,2.20
2023-01-22T03:12:58.564Z,2.20
2023-01-22T03:15:43.597Z,2.00
2023-01-22T03:18:28.766Z,2.10
2023-01-22T03:21:15.592Z,2.20
2023-01-22T03:23:43.513Z,2.10
2023-01-22T03:26:12.452Z,2.00
2023-01-22T03:28:40.163Z,2.10
2023-01-22T03:31:07.813Z,2.10
2023-01-22T03:33:35.952Z,2.30
2023-01-22T03:36:04.507Z,2.20
2023-01-22T03:38:32.243Z,2.20
2023-01-22T03:41:03.838Z,2.30
2023-01-22T03:43:33.524Z,2.30
2023-01-22T03:46:02.373Z,2.40
2023-01-22T03:48:30.440Z,2.20
2023-01-22T03:50:58.219Z,2.30
2023-01-22T03:53:25.769Z,2.20
2023-01-22T03:55:59.647Z,2.30
2023-01-22T03:58:27.243Z,2.20
2023-01-22T04:00:58.373Z,2.40
2023-01-22T04:03:26.916Z,2.30
2023-01-22T04:05:54.958Z,2.20
2023-01-22T04:08:22.913Z,2.10
2023-01-22T04:10:50.490Z,2.20
2023-01-22T04:13:18.039Z,2.20
2023-01-22T04:15:45.974Z,2.10
2023-01-22T04:18:14.898Z,2.20
2023-01-22T04:20:42.470Z,2.10
2023-01-22T04:23:10.337Z,2.10
2023-01-22T04:25:38.120Z,2.00
2023-01-22T04:28:06.595Z,2.30
2023-01-22T04:30:34.300Z,2.40
2023-01-22T04:33:01.926Z,2.30
2023-01-22T04:35:31.044Z,2.30
2023-01-22T04:37:59.171Z,2.20
2023-01-22T04:40:26.760Z,2.40
2023-01-22T04:42:54.345Z,2.10
2023-01-22T04:45:23.052Z,2.20
2023-01-22T04:47:50.628Z,2.20
2023-01-22T04:50:21.346Z,2.20
2023-01-22T04:52:50.714Z,2.20
2023-01-22T04:55:18.511Z,2.20
2023-01-22T04:57:46.316Z,2.30
2023-01-22T05:00:14.400Z,2.30
2023-01-22T05:02:42.054Z,2.20
2023-01-22T05:05:10.282Z,2.50
2023-01-22T05:07:37.940Z,2.30
2023-01-22T05:10:07.647Z,2.20
2023-01-22T05:12:35.245Z,2.30
2023-01-22T05:15:05.539Z,2.20
2023-01-22T05:17:34.897Z,2.10
2023-01-22T05:20:02.498Z,2.20
2023-01-22T05:22:30.151Z,2.20
2023-01-22T05:24:57.816Z,2.30
2023-01-22T05:27:26.752Z,2.20
2023-01-22T05:29:54.345Z,2.30
2023-01-22T05:32:21.908Z,2.20
2023-01-22T05:34:49.477Z,2.40
2023-01-22T05:37:17.038Z,2.30
2023-01-22T05:39:44.620Z,2.40
2023-01-22T05:42:14.226Z,2.30
2023-01-22T05:44:43.497Z,2.40
2023-01-22T05:47:13.127Z,2.40
2023-01-22T05:49:41.035Z,2.40
2023-01-22T05:52:10.572Z,2.60
2023-01-22T05:54:39.141Z,2.50
2023-01-22T05:57:07.113Z,2.50
2023-01-22T05:59:34.711Z,2.60
2023-01-22T06:02:03.878Z,2.60
2023-01-22T06:04:31.456Z,2.60
2023-01-22T06:06:59.089Z,2.50
2023-01-22T06:09:26.630Z,2.60
2023-01-22T06:11:55.357Z,2.60
2023-01-22T06:14:22.916Z,2.60
2023-01-22T06:16:50.552Z,2.60
2023-01-22T06:19:19.577Z,2.50
2023-01-22T06:21:47.123Z,2.60
2023-01-22T06:24:14.719Z,2.60
2023-01-22T06:26:42.450Z,2.60
2023-01-22T06:29:10.024Z,2.50
2023-01-22T06:31:37.697Z,2.60
2023-01-22T06:34:05.672Z,2.60
2023-01-22T06:36:34.558Z,2.60
2023-01-22T06:39:02.324Z,2.70
2023-01-22T06:41:29.947Z,2.70
2023-01-22T06:44:01.773Z,2.70
2023-01-22T06:46:29.360Z,2.60
2023-01-22T06:48:58.880Z,2.60
2023-01-22T06:51:26.633Z,2.70
2023-01-22T06:53:55.635Z,2.60
2023-01-22T06:56:23.426Z,2.60
2023-01-22T06:58:51.089Z,2.60
2023-01-22T07:01:18.786Z,2.70
2023-01-22T07:03:46.714Z,2.80
2023-01-22T07:06:14.886Z,2.90
2023-01-22T07:08:42.484Z,2.70
2023-01-22T07:11:11.811Z,2.80
2023-01-22T07:13:40.649Z,2.80
2023-01-22T07:16:08.877Z,2.80
2023-01-22T07:18:36.864Z,2.80
2023-01-22T07:21:05.556Z,2.80
2023-01-22T07:23:33.258Z,2.90
2023-01-22T07:26:00.873Z,2.90
2023-01-22T07:28:29.873Z,2.80
2023-01-22T07:30:57.556Z,2.70
2023-01-22T07:33:26.097Z,2.80
2023-01-22T07:35:57.441Z,2.90
2023-01-22T07:38:28.063Z,3.00
2023-01-22T07:40:55.961Z,2.90
2023-01-22T07:43:23.568Z,2.80
2023-01-22T07:45:52.570Z,3.00
2023-01-22T07:48:20.127Z,3.00
2023-01-22T07:50:47.864Z,2.90
2023-01-22T07:53:15.419Z,3.00
2023-01-22T07:55:43.121Z,2.90
2023-01-22T07:58:11.496Z,3.00
2023-01-22T08:00:39.364Z,3.00
2023-01-22T08:03:10.627Z,3.10
2023-01-22T08:05:40.003Z,3.40
2023-01-22T08:08:08.163Z,3.10
2023-01-22T08:10:36.869Z,3.10
2023-01-22T08:13:04.489Z,2.80
2023-01-22T08:15:32.547Z,3.10
2023-01-22T08:18:00.353Z,2.70
2023-01-22T08:20:29.398Z,3.00
2023-01-22T08:22:57.961Z,3.20
2023-01-22T08:25:25.796Z,3.10
2023-01-22T08:27:53.589Z,3.10
2023-01-22T08:30:21.463Z,3.10
2023-01-22T08:32:50.360Z,3.00
2023-01-22T08:35:18.566Z,3.10
2023-01-22T08:37:47.938Z,3.10
2023-01-22T08:40:16.229Z,3.30
2023-01-22T08:42:44.254Z,3.20
2023-01-22T08:45:12.254Z,3.20
2023-01-22T08:47:40.419Z,3.10
2023-01-22T08:50:08.749Z,3.20
2023-01-22T08:52:36.712Z,3.10
2023-01-22T08:55:09.879Z,3.30
2023-01-22T08:57:37.896Z,3.20
2023-01-22T09:00:06.364Z,3.10
2023-01-22T09:02:34.251Z,3.30
2023-01-22T09:05:02.802Z,3.30
2023-01-22T09:07:30.680Z,3.30
2023-01-22T09:09:58.660Z,3.20
2023-01-22T09:12:27.874Z,3.10
2023-01-22T09:14:55.841Z,3.20
2023-01-22T09:17:23.703Z,3.20
2023-01-22T09:19:51.468Z,3.20
2023-01-22T09:22:20.221Z,3.40
2023-01-22T09:24:49.290Z,3.20
2023-01-22T09:27:17.222Z,3.20
2023-01-22T09:29:46.432Z,3.30
2023-01-22T09:32:14.254Z,3.40
2023-01-22T09:34:42.016Z,3.30
2023-01-22T09:37:09.987Z,3.20
2023-01-22T09:39:38.918Z,3.40
2023-01-22T09:42:07.291Z,3.30
2023-01-22T09:44:37.709Z,3.30
2023-01-22T09:47:07.917Z,3.30
2023-01-22T09:49:37.825Z,3.20
2023-01-22T09:52:06.210Z,3.40
2023-01-22T09:54:34.243Z,3.30
2023-01-22T09:57:03.786Z,3.50
2023-01-22T09:59:33.883Z,3.40
2023-01-22T10:02:04.658Z,3.40
2023-01-22T10:04:36.660Z,3.40
2023-01-22T10:07:06.282Z,3.40
2023-01-22T10:09:34.954Z,3.60
2023-01-22T10:12:09.415Z,3.60
2023-01-22T10:14:37.135Z,3.60
2023-01-22T10:17:17.905Z,3.70
2023-01-22T10:19:49.088Z,3.80
2023-01-22T10:22:19.781Z,4.00
2023-01-22T10:24:47.463Z,3.90
2023-01-22T10:27:17.425Z,3.80
2023-01-22T10:29:46.085Z,3.70
2023-01-22T10:32:18.067Z,3.80
2023-01-22T10:34:57.649Z,3.70
2023-01-22T10:37:25.350Z,3.70
2023-01-22T10:39:56.887Z,3.90
2023-01-22T10:42:25.433Z,3.90
2023-01-22T10:44:55.951Z,4.00
2023-01-22T10:47:26.617Z,3.90
2023-01-22T10:50:07.855Z,3.80
2023-01-22T10:52:37.759Z,4.00
2023-01-22T10:55:05.956Z,4.00
2023-01-22T10:57:41.481Z,3.90
2023-01-22T11:00:22.657Z,4.00
2023-01-22T11:02:51.119Z,4.00
2023-01-22T11:05:21.664Z,3.90
2023-01-22T11:07:51.271Z,4.00
2023-01-22T11:10:20.911Z,4.00
2023-01-22T11:12:51.271Z,4.10
2023-01-22T11:15:21.684Z,4.00
2023-01-22T11:17:50.865Z,4.00
2023-01-22T11:20:24.079Z,4.10
2023-01-22T11:23:00.538Z,4.00
2023-01-22T11:25:39.000Z,4.10
2023-01-22T11:28:12.319Z,4.10
2023-01-22T11:31:13.217Z,4.20
2023-01-22T11:33:53.599Z,4.20
2023-01-22T11:36:24.943Z,4.30
2023-01-22T11:38:54.283Z,4.10
2023-01-22T11:41:37.669Z,4.30
2023-01-22T11:44:18.486Z,4.30
2023-01-22T11:46:55.973Z,4.20
2023-01-22T11:49:30.902Z,4.30
2023-01-22T11:52:04.883Z,4.40
2023-01-22T11:54:40.000Z,4.40
2023-01-22T11:57:10.461Z,4.40
2023-01-22T11:59:50.469Z,4.40
2023-01-22T12:02:24.050Z,4.40
2023-01-22T12:05:16.903Z,4.40
2023-01-22T12:08:02.466Z,4.40
2023-01-22T12:10:42.786Z,4.40
2023-01-22T12:13:20.570Z,4.60
2023-01-22T12:15:50.158Z,4.60
2023-01-22T12:18:35.163Z,4.60
2023-01-22T12:21:07.411Z,4.60
2023-01-22T12:23:37.051Z,4.60
2023-01-22T12:29:00.105Z,4.70
2023-01-22T12:31:32.585Z,4.70
2023-01-22T12:34:05.161Z,4.70
2023-01-22T12:36:58.887Z,4.60
2023-01-22T12:39:51.632Z,4.50
2023-01-22T12:42:35.092Z,4.50
2023-01-22T12:45:12.645Z,4.70
2023-01-22T12:50:56.380Z,4.80
2023-01-22T12:53:25.876Z,4.60
2023-01-22T12:56:02.746Z,4.70
2023-01-22T12:58:33.052Z,4.60
2023-01-22T13:01:03.845Z,4.60
2023-01-22T13:03:35.664Z,4.70
2023-01-22T13:06:04.391Z,4.80
2023-01-22T13:08:41.269Z,4.70
2023-01-22T13:11:09.920Z,4.80
2023-01-22T13:14:23.490Z,4.70
2023-01-22T13:16:32.684Z,4.70
2023-01-22T13:19:01.197Z,4.60
2023-01-22T13:21:30.511Z,4.70
2023-01-22T13:23:58.878Z,4.80
2023-01-22T13:26:29.836Z,4.80
2023-01-22T13:29:00.387Z,4.90
2023-01-22T13:31:28.393Z,4.90
2023-01-22T13:33:57.461Z,4.90
2023-01-22T13:36:25.435Z,5.00
2023-01-22T13:38:53.954Z,5.00
2023-01-22T13:41:27.011Z,5.00
2023-01-22T13:43:54.711Z,4.90
2023-01-22T13:46:23.955Z,5.10
2023-01-22T13:49:00.572Z,5.10
2023-01-22T13:51:28.523Z,5.30
2023-01-22T13:53:56.377Z,5.20
2023-01-22T13:56:26.472Z,5.20
2023-01-22T13:58:57.090Z,5.10
2023-01-22T14:01:30.420Z,5.10
2023-01-22T14:04:04.033Z,5.10
2023-01-22T14:06:43.600Z,5.10
2023-01-22T14:09:12.318Z,5.20
2023-01-22T14:11:40.438Z,5.10
2023-01-22T14:14:17.874Z,5.10
2023-01-22T14:16:46.924Z,5.10
2023-01-22T14:19:14.798Z,5.20
2023-01-22T14:21:44.575Z,5.20
2023-01-22T14:24:12.207Z,5.10
2023-01-22T14:26:40.967Z,5.10
2023-01-22T14:29:08.734Z,5.10
2023-01-22T14:31:38.497Z,5.00
2023-01-22T14:34:07.417Z,5.00
2023-01-22T14:36:35.023Z,5.00
2023-01-22T14:39:02.652Z,5.10
2023-01-22T14:41:30.242Z,5.10
2023-01-22T14:43:57.824Z,5.20
2023-01-22T14:46:25.375Z,5.10
2023-01-22T14:48:53.117Z,5.10
2023-01-22T14:51:22.309Z,5.20
2023-01-22T14:53:51.320Z,5.00
2023-01-22T14:56:19.044Z,5.00
2023-01-22T14:58:49.529Z,5.20
2023-01-22T15:01:17.788Z,5.00
2023-01-22T15:03:45.447Z,5.00
2023-01-22T15:06:13.033Z,4.90
2023-01-22T15:08:42.097Z,4.90
2023-01-22T15:11:09.777Z,4.80
2023-01-22T15:13:37.525Z,4.90
2023-01-22T15:16:05.597Z,4.90
2023-01-22T15:18:33.336Z,5.00
2023-01-22T15:21:01.257Z,5.00
2023-01-22T15:23:28.821Z,5.00
2023-01-22T15:25:58.454Z,5.00
2023-01-22T15:28:26.132Z,5.00
2023-01-22T15:30:56.748Z,4.90
2023-01-22T15:33:24.455Z,4.90
2023-01-22T15:35:52.110Z,4.80
2023-01-22T15:38:19.789Z,4.80
2023-01-22T15:40:47.385Z,4.80
2023-01-22T15:43:16.357Z,4.80
2023-01-22T15:45:43.921Z,4.80
2023-01-22T15:48:14.085Z,4.80
2023-01-22T15:53:36.042Z,4.90
2023-01-22T15:56:04.072Z,4.80
2023-01-22T15:58:33.444Z,4.70
2023-01-22T16:01:01.054Z,4.80
2023-01-22T16:03:28.763Z,4.80
2023-01-22T16:05:56.340Z,4.90
2023-01-22T16:08:23.882Z,4.80
2023-01-22T16:10:51.624Z,4.80
2023-01-22T16:13:19.172Z,4.90
2023-01-22T16:15:58.740Z,5.00
2023-01-22T16:18:26.464Z,4.90
2023-01-22T16:20:54.068Z,4.90
2023-01-22T16:23:24.446Z,4.80
2023-01-22T16:25:52.033Z,4.80
2023-01-22T16:28:19.615Z,4.80
2023-01-22T16:30:47.200Z,4.80
2023-01-22T16:33:24.358Z,4.80
2023-01-22T16:35:58.984Z,4.80
2023-01-22T16:38:26.638Z,4.70
2023-01-22T16:40:54.547Z,4.90
2023-01-22T16:43:22.434Z,4.90
2023-01-22T16:45:50.138Z,4.80
2023-01-22T16:48:17.950Z,4.80
2023-01-22T16:50:49.097Z,4.80
2023-01-22T16:53:16.710Z,4.90
2023-01-22T16:55:50.027Z,4.90
2023-01-22T16:58:18.654Z,5.00
2023-01-22T17:00:47.326Z,5.00
2023-01-22T17:03:16.196Z,5.00
2023-01-22T17:05:44.668Z,4.90
2023-01-22T17:08:15.193Z,4.80
2023-01-22T17:10:43.174Z,4.80
2023-01-22T17:13:10.910Z,4.80
2023-01-22T17:15:39.625Z,4.90
2023-01-22T17:18:10.417Z,4.80
2023-01-22T17:20:38.539Z,4.90
2023-01-22T17:23:06.133Z,4.90
2023-01-22T17:25:35.105Z,4.90
2023-01-22T17:28:02.975Z,4.90
2023-01-22T17:30:30.998Z,4.90
2023-01-22T17:32:59.742Z,4.90
2023-01-22T17:35:27.687Z,4.70
2023-01-22T17:37:58.044Z,4.70
2023-01-22T17:40:26.428Z,4.50
2023-01-22T17:42:55.425Z,4.50
2023-01-22T17:45:23.000Z,4.50
2023-01-22T17:47:54.439Z,4.50
2023-01-22T17:50:22.260Z,4.60
2023-01-22T17:52:50.308Z,4.60
2023-01-22T17:55:23.693Z,4.60
2023-01-22T17:57:56.329Z,4.60
2023-01-22T18:00:26.724Z,4.90
2023-01-22T18:02:54.541Z,4.70
2023-01-22T18:05:25.388Z,4.80
2023-01-22T18:07:53.407Z,4.60
2023-01-22T18:10:21.332Z,4.60
2023-01-22T18:12:49.824Z,4.70
2023-01-22T18:15:19.801Z,4.60
2023-01-22T18:17:49.448Z,4.60
2023-01-22T18:20:17.697Z,4.70
2023-01-22T18:22:45.368Z,4.60
2023-01-22T18:25:12.933Z,4.60
2023-01-22T18:27:40.727Z,4.60
2023-01-22T18:30:11.716Z,4.60
2023-01-22T18:32:40.848Z,4.50
2023-01-22T18:35:09.565Z,4.60
2023-01-22T18:37:38.906Z,4.80
2023-01-22T18:40:09.796Z,4.80
2023-01-22T18:42:37.492Z,4.70
2023-01-22T18:45:05.545Z,4.60
2023-01-22T18:47:34.694Z,4.60
2023-01-22T18:50:03.892Z,4.70
2023-01-22T18:52:31.594Z,4.50
2023-01-22T18:54:59.208Z,4.30
2023-01-22T18:57:29.255Z,4.40
2023-01-22T18:59:56.987Z,4.50
2023-01-22T19:02:24.733Z,4.40
2023-01-22T19:04:53.306Z,4.50
2023-01-22T19:07:22.365Z,4.50
2023-01-22T19:09:51.693Z,4.50
2023-01-22T19:12:19.807Z,4.40
2023-01-22T19:14:49.037Z,4.60
2023-01-22T19:17:18.124Z,4.50
2023-01-22T19:19:45.673Z,4.50
2023-01-22T19:22:16.499Z,4.50
2023-01-22T19:24:47.859Z,4.50
2023-01-22T19:27:15.671Z,4.40
2023-01-22T19:29:43.342Z,4.40
2023-01-22T19:32:12.108Z,4.50
2023-01-22T19:34:39.746Z,4.60
2023-01-22T19:37:08.399Z,4.60
2023-01-22T19:39:36.350Z,4.60
2023-01-22T19:42:06.758Z,4.10
2023-01-22T19:44:37.384Z,4.50
2023-01-22T19:47:05.139Z,4.60
2023-01-22T19:49:33.671Z,4.60
2023-01-22T19:52:09.777Z,4.50
2023-01-22T19:54:44.945Z,4.60
2023-01-22T19:57:33.834Z,4.50
2023-01-22T20:00:16.616Z,4.60
2023-01-22T20:02:45.263Z,4.60
2023-01-22T20:05:16.646Z,4.70
2023-01-22T20:07:45.395Z,4.50
2023-01-22T20:10:15.577Z,4.50
2023-01-22T20:12:50.232Z,4.50
2023-01-22T20:15:19.764Z,4.60
2023-01-22T20:17:50.053Z,4.50
2023-01-22T20:20:18.058Z,4.60
2023-01-22T20:22:46.233Z,4.70
2023-01-22T20:25:13.839Z,4.80
2023-01-22T20:27:41.699Z,4.60
2023-01-22T20:30:11.106Z,4.50
2023-01-22T20:32:40.142Z,4.40
2023-01-22T20:35:08.953Z,4.50
2023-01-22T20:37:36.588Z,4.50
2023-01-22T20:40:04.407Z,4.60
2023-01-22T20:42:31.988Z,4.60
2023-01-22T20:44:59.821Z,4.60
2023-01-22T20:47:28.016Z,4.60
2023-01-22T20:49:58.754Z,4.50
2023-01-22T20:52:26.532Z,4.50
2023-01-22T20:55:01.839Z,4.60
2023-01-22T20:57:30.493Z,4.60
2023-01-22T20:59:58.234Z,4.60
2023-01-22T21:02:25.986Z,4.50
2023-01-22T21:04:54.069Z,4.50
2023-01-22T21:07:23.553Z,4.50
2023-01-22T21:09:51.335Z,4.50
2023-01-22T21:12:18.917Z,4.50
2023-01-22T21:14:48.771Z,4.50
2023-01-22T21:17:19.953Z,4.50
2023-01-22T21:19:49.645Z,4.50
2023-01-22T21:22:18.979Z,4.40
2023-01-22T21:24:53.185Z,4.50
2023-01-22T21:27:23.698Z,4.50
2023-01-22T21:29:54.256Z,4.50
2023-01-22T21:32:21.970Z,4.50
2023-01-22T21:34:52.626Z,4.50
2023-01-22T21:37:20.243Z,4.40
2023-01-22T21:39:48.167Z,4.50
2023-01-22T21:42:34.698Z,4.40
2023-01-22T21:45:20.840Z,4.50
2023-01-22T21:47:49.138Z,4.60
2023-01-22T21:50:17.676Z,4.50
2023-01-22T21:52:47.658Z,4.40
2023-01-22T21:55:17.007Z,4.40
2023-01-22T21:57:46.355Z,4.30
2023-01-22T22:00:16.561Z,4.40
2023-01-22T22:02:45.092Z,4.50
2023-01-22T22:05:13.227Z,4.40
2023-01-22T22:07:40.872Z,4.30
2023-01-22T22:10:13.302Z,4.40
2023-01-22T22:12:42.123Z,4.40
2023-01-22T22:15:12.141Z,4.40
2023-01-22T22:17:40.101Z,4.40
2023-01-22T22:20:08.405Z,4.40
2023-01-22T22:22:36.345Z,4.40
2023-01-22T22:25:04.593Z,4.40
2023-01-22T22:27:32.563Z,4.40
2023-01-22T22:30:00.442Z,4.40
2023-01-22T22:32:29.453Z,4.50
2023-01-22T22:34:57.302Z,4.40
2023-01-22T22:37:24.869Z,4.30
2023-01-22T22:39:52.761Z,4.60
2023-01-22T22:42:20.815Z,4.40
2023-01-22T22:44:48.742Z,4.30
2023-01-22T22:47:18.032Z,4.40
2023-01-22T22:49:47.197Z,4.40
2023-01-22T22:52:15.301Z,4.50
2023-01-22T22:54:43.330Z,4.50
2023-01-22T22:57:11.348Z,4.40
2023-01-22T22:59:39.344Z,4.40
2023-01-22T23:02:09.498Z,4.40
2023-01-22T23:04:37.237Z,4.30
2023-01-22T23:07:06.358Z,4.40
2023-01-22T23:09:34.491Z,4.40
2023-01-22T23:12:07.769Z,4.50
2023-01-22T23:14:35.714Z,4.20
2023-01-22T23:17:05.357Z,4.20
2023-01-22T23:19:33.383Z,4.20
2023-01-22T23:22:01.587Z,4.10
2023-01-22T23:24:31.765Z,4.20
2023-01-22T23:26:59.352Z,4.20
2023-01-22T23:29:29.421Z,4.20
2023-01-22T23:31:57.831Z,4.20
2023-01-22T23:34:25.820Z,4.30
2023-01-22T23:36:55.351Z,4.30
2023-01-22T23:39:23.008Z,4.40
2023-01-22T23:41:57.812Z,4.40
2023-01-22T23:44:25.552Z,4.30
2023-01-22T23:46:53.164Z,4.30
2023-01-22T23:49:20.726Z,4.30
2023-01-22T23:51:48.280Z,4.30
2023-01-22T23:54:18.182Z,4.30
2023-01-22T23:56:45.749Z,4.10
2023-01-22T23:59:14.675Z,4.10
